Time;durP1;ratioP1;P1;durP2;ratioP2;P2;SDS_P1;SDS_P2;PMS_P1;PMS_P2;Temp;Humidity;BMP_temperature;BMP_pressure;BME280_temperature;BME280_humidity;BME280_pressure;Samples;Min_cycle;Max_cycle;Signal;HPM_P1;HPM_P2
2021/01/22 00:01:18;;;;;;;8.40;7.60;;;7.20;38.60;;;;;;10405781;28;20308;-70
2021/01/22 00:06:21;;;;;;;10.27;7.53;;;7.20;38.60;;;;;;10405501;28;20222;-73
2021/01/22 00:11:23;;;;;;;8.17;7.37;;;7.20;38.60;;;;;;10400784;28;20244;-70
2021/01/22 00:16:25;;;;;;;9.37;8.37;;;7.20;38.60;;;;;;10396678;28;20239;-70
2021/01/22 00:21:29;;;;;;;11.07;10.07;;;7.20;38.60;;;;;;10387761;28;20238;-73
2021/01/22 00:26:32;;;;;;;8.70;7.90;;;7.20;38.60;;;;;;10406098;28;20228;-70
2021/01/22 00:31:34;;;;;;;8.93;8.07;;;7.20;38.60;;;;;;10399135;28;20229;-70
2021/01/22 00:36:37;;;;;;;9.10;8.20;;;7.20;38.60;;;;;;10398089;28;20577;-70
2021/01/22 00:41:40;;;;;;;9.43;8.37;;;7.20;38.60;;;;;;10403159;28;20518;-70
2021/01/22 00:46:42;;;;;;;9.23;8.03;;;7.20;38.60;;;;;;10394364;28;20716;-70
2021/01/22 00:51:45;;;;;;;12.13;10.17;;;7.20;38.80;;;;;;10401090;28;20299;-71
2021/01/22 00:56:47;;;;;;;10.40;9.40;;;7.20;38.60;;;;;;10397187;28;20596;-70
2021/01/22 01:01:50;;;;;;;10.17;9.17;;;7.10;38.50;;;;;;10402465;28;20238;-70
2021/01/22 01:06:53;;;;;;;10.07;9.00;;;7.10;38.70;;;;;;10402988;28;20305;-70
2021/01/22 01:11:55;;;;;;;9.63;8.70;;;7.00;39.00;;;;;;10396740;28;20316;-70
2021/01/22 01:16:57;;;;;;;8.37;7.53;;;6.90;39.20;;;;;;10401018;28;20791;-70
2021/01/22 01:22:00;;;;;;;8.70;7.70;;;6.80;39.30;;;;;;10407063;28;20236;-70
2021/01/22 01:27:03;;;;;;;8.73;7.83;;;6.80;39.40;;;;;;10406397;28;20329;-70
2021/01/22 01:32:06;;;;;;;8.53;7.73;;;6.90;39.40;;;;;;10408298;28;20226;-70
2021/01/22 01:37:09;;;;;;;8.93;7.77;;;6.90;39.40;;;;;;10409638;28;20240;-70
2021/01/22 01:42:11;;;;;;;9.47;7.63;;;7.00;39.50;;;;;;10411573;28;20607;-70
2021/01/22 01:47:13;;;;;;;9.30;8.40;;;7.00;39.40;;;;;;10404849;28;20226;-70
2021/01/22 01:52:16;;;;;;;8.97;8.07;;;7.00;39.50;;;;;;10408629;28;20241;-71
2021/01/22 01:57:19;;;;;;;9.80;8.20;;;7.00;39.30;;;;;;10405748;28;20232;-71
2021/01/22 02:02:21;;;;;;;8.93;7.50;;;7.00;39.40;;;;;;10410122;28;20237;-71
2021/01/22 02:07:25;;;;;;;7.90;7.17;;;7.00;39.40;;;;;;10408775;28;20276;-71
2021/01/22 02:12:28;;;;;;;8.97;7.50;;;7.10;39.50;;;;;;10398927;28;20284;-71
2021/01/22 02:17:30;;;;;;;8.33;7.57;;;7.10;39.50;;;;;;10406558;28;20693;-70
2021/01/22 02:22:33;;;;;;;8.43;7.60;;;7.20;39.30;;;;;;10402552;28;20249;-70
2021/01/22 02:27:38;;;;;;;9.10;7.90;;;7.20;39.30;;;;;;10406893;28;20312;-70
2021/01/22 02:32:44;;;;;;;8.63;7.73;;;7.10;39.40;;;;;;10401890;28;20236;-70
2021/01/22 02:37:49;;;;;;;8.40;7.57;;;7.10;39.40;;;;;;10408678;28;20232;-70
2021/01/22 02:42:54;;;;;;;9.07;7.80;;;7.10;39.50;;;;;;10401945;28;20226;-70
2021/01/22 02:47:57;;;;;;;8.30;7.50;;;7.10;39.50;;;;;;10402419;28;20222;-71
2021/01/22 02:53:01;;;;;;;8.90;7.80;;;7.10;39.80;;;;;;10408214;28;20230;-71
2021/01/22 02:58:12;;;;;;;8.87;7.57;;;7.10;39.50;;;;;;10405746;28;20318;-71
2021/01/22 03:03:26;;;;;;;8.47;7.60;;;7.00;39.60;;;;;;10400723;28;20240;-71
2021/01/22 03:08:30;;;;;;;8.77;7.20;;;7.00;39.70;;;;;;10367661;28;20253;-70
2021/01/22 03:13:33;;;;;;;7.23;6.53;;;7.00;39.60;;;;;;10365803;28;20230;-71
2021/01/22 03:18:36;;;;;;;9.20;7.33;;;7.00;39.60;;;;;;10359915;28;20226;-71
2021/01/22 03:23:43;;;;;;;7.00;6.30;;;7.00;39.60;;;;;;10358075;28;20284;-70
2021/01/22 03:28:46;;;;;;;7.43;6.73;;;7.00;39.70;;;;;;10400307;28;20249;-70
2021/01/22 03:33:49;;;;;;;7.47;6.73;;;6.90;39.70;;;;;;10396977;28;20308;-70
2021/01/22 03:38:51;;;;;;;7.10;6.37;;;7.00;39.70;;;;;;10406169;28;20255;-70
2021/01/22 03:43:54;;;;;;;6.60;6.00;;;6.90;39.60;;;;;;10404962;28;20238;-70
2021/01/22 03:48:56;;;;;;;6.93;6.23;;;6.90;39.70;;;;;;10400821;28;20232;-70
2021/01/22 03:53:58;;;;;;;7.03;6.33;;;6.90;39.70;;;;;;10403154;28;20249;-70
2021/01/22 03:59:01;;;;;;;6.00;5.43;;;6.80;39.80;;;;;;10398620;28;20316;-70
2021/01/22 04:04:04;;;;;;;5.67;5.17;;;6.90;39.80;;;;;;10404527;28;20226;-70
2021/01/22 04:09:06;;;;;;;6.87;5.17;;;6.80;39.80;;;;;;10400767;28;20237;-71
2021/01/22 04:14:09;;;;;;;5.13;4.63;;;6.90;40.10;;;;;;10400546;28;20226;-71
2021/01/22 04:19:11;;;;;;;6.33;4.30;;;6.90;40.20;;;;;;10400936;28;20230;-71
2021/01/22 04:24:14;;;;;;;4.40;4.00;;;7.00;40.30;;;;;;10401510;28;20316;-70
2021/01/22 04:29:17;;;;;;;3.97;3.67;;;7.10;40.50;;;;;;10400952;28;20215;-71
2021/01/22 04:34:19;;;;;;;3.97;3.10;;;7.20;40.80;;;;;;10402767;28;20652;-70
2021/01/22 04:39:21;;;;;;;3.33;3.03;;;7.40;40.90;;;;;;10404428;28;20240;-71
2021/01/22 04:44:24;;;;;;;3.23;2.93;;;7.50;40.80;;;;;;10391002;28;20226;-71
2021/01/22 04:49:26;;;;;;;3.50;3.20;;;7.70;40.60;;;;;;10399502;28;20585;-70
2021/01/22 04:54:36;;;;;;;3.47;3.17;;;7.80;40.40;;;;;;10402146;28;20324;-70
2021/01/22 04:59:47;;;;;;;3.40;3.10;;;8.00;40.40;;;;;;10415715;28;20275;-70
2021/01/22 05:04:50;;;;;;;4.40;2.90;;;8.00;40.20;;;;;;10415490;28;20598;-70
2021/01/22 05:09:55;;;;;;;3.80;2.27;;;8.20;40.30;;;;;;10418092;28;20331;-70
2021/01/22 05:14:59;;;;;;;2.47;1.97;;;8.20;40.30;;;;;;10413093;28;20725;-70
2021/01/22 05:20:06;;;;;;;2.20;2.00;;;8.30;40.40;;;;;;10364203;28;20233;-70
2021/01/22 05:25:09;;;;;;;2.40;2.10;;;8.40;40.30;;;;;;10373499;28;20233;-70
2021/01/22 05:30:14;;;;;;;2.70;2.50;;;8.50;40.20;;;;;;10372145;28;20673;-70
2021/01/22 05:35:28;;;;;;;2.27;2.10;;;8.60;39.70;;;;;;10370881;28;20244;-70
2021/01/22 05:40:30;;;;;;;2.20;2.00;;;8.70;39.80;;;;;;10373761;28;20308;-70
2021/01/22 05:45:44;;;;;;;2.67;2.10;;;8.70;39.80;;;;;;10374173;28;20232;-70
2021/01/22 05:50:48;;;;;;;3.57;3.27;;;8.80;39.90;;;;;;10369989;28;20249;-70
2021/01/22 05:56:08;;;;;;;4.27;3.13;;;8.80;39.90;;;;;;10374868;28;20218;-71
2021/01/22 06:01:12;;;;;;;2.47;2.17;;;8.80;39.90;;;;;;10389308;28;20232;-71
2021/01/22 06:06:16;;;;;;;2.23;2.00;;;8.90;40.00;;;;;;10413420;28;20312;-73
2021/01/22 06:11:21;;;;;;;2.20;1.90;;;8.90;40.00;;;;;;10407287;28;20595;-73
2021/01/22 06:16:25;;;;;;;2.63;1.97;;;8.90;40.00;;;;;;10398500;28;20321;-70
2021/01/22 06:21:30;;;;;;;2.43;1.83;;;8.90;40.00;;;;;;10397355;28;20230;-70
2021/01/22 06:26:37;;;;;;;3.67;2.10;;;8.90;40.00;;;;;;10360831;28;20301;-70
2021/01/22 06:31:42;;;;;;;2.23;2.10;;;8.90;40.00;;;;;;10364234;28;20226;-70
2021/01/22 06:36:46;;;;;;;2.33;2.13;;;8.90;40.00;;;;;;10365916;28;20261;-70
2021/01/22 06:41:48;;;;;;;3.47;2.30;;;8.90;40.00;;;;;;10364805;28;20237;-70
2021/01/22 06:46:51;;;;;;;2.07;1.80;;;9.00;39.90;;;;;;10361177;28;20604;-71
2021/01/22 06:52:09;;;;;;;2.80;2.60;;;8.90;40.00;;;;;;10364244;28;20230;-70
2021/01/22 06:57:12;;;;;;;2.67;2.10;;;8.90;40.00;;;;;;10383295;28;20328;-70
2021/01/22 07:02:38;;;;;;;2.47;1.80;;;9.00;40.10;;;;;;10407863;28;20236;-70
2021/01/22 07:07:45;;;;;;;6.63;4.33;;;9.00;40.00;;;;;;10402677;28;20308;-70
2021/01/22 07:12:47;;;;;;;3.53;3.03;;;9.00;39.80;;;;;;10402846;28;20662;-70
2021/01/22 07:17:54;;;;;;;3.73;3.30;;;8.90;39.60;;;;;;10401819;28;20228;-71
2021/01/22 07:22:59;;;;;;;2.47;2.27;;;8.90;39.90;;;;;;10403967;28;20228;-71
2021/01/22 07:28:05;;;;;;;2.10;1.90;;;8.80;39.90;;;;;;10400980;28;20268;-71
2021/01/22 07:33:37;;;;;;;2.40;2.20;;;8.90;40.00;;;;;;10396739;28;20217;-71
2021/01/22 07:38:41;;;;;;;2.80;2.10;;;9.00;40.10;;;;;;10402021;28;20855;-71
2021/01/22 07:43:43;;;;;;;3.10;2.37;;;9.00;40.10;;;;;;10405748;28;20347;-71
2021/01/22 07:48:48;;;;;;;2.10;2.00;;;9.10;40.10;;;;;;10398582;28;20247;-71
2021/01/22 07:53:56;;;;;;;1.40;1.30;;;9.20;40.20;;;;;;10403052;28;20260;-72
2021/01/22 07:58:58;;;;;;;2.80;2.60;;;9.30;40.10;;;;;;10398800;28;20280;-71
2021/01/22 08:04:01;;;;;;;4.30;3.90;;;9.40;40.20;;;;;;10405038;28;20237;-71
2021/01/22 08:09:11;;;;;;;3.07;2.30;;;9.50;39.80;;;;;;10398486;28;23812;-71
2021/01/22 08:14:27;;;;;;;2.37;1.93;;;9.60;39.60;;;;;;10399784;28;20222;-71
2021/01/22 08:19:32;;;;;;;1.60;1.50;;;9.70;39.80;;;;;;10400819;28;20772;-72
2021/01/22 08:24:35;;;;;;;2.10;2.00;;;9.80;39.50;;;;;;10388977;28;20241;-72
2021/01/22 08:29:37;;;;;;;2.90;1.83;;;9.90;39.70;;;;;;10391501;28;20229;-71
2021/01/22 08:34:40;;;;;;;1.47;1.37;;;10.00;39.30;;;;;;10398477;28;20221;-72
2021/01/22 08:39:58;;;;;;;1.50;1.40;;;10.10;38.40;;;;;;10395194;28;20800;-72
2021/01/22 08:45:02;;;;;;;1.50;1.30;;;10.20;37.80;;;;;;10394046;28;20566;-72
2021/01/22 08:50:08;;;;;;;1.57;1.40;;;10.30;38.10;;;;;;10394892;28;20240;-72
2021/01/22 08:55:19;;;;;;;2.53;2.33;;;10.40;38.00;;;;;;10392011;28;20599;-72
2021/01/22 09:00:25;;;;;;;2.80;2.27;;;10.50;37.60;;;;;;10388633;28;20244;-72
2021/01/22 09:05:29;;;;;;;2.57;2.37;;;10.60;37.70;;;;;;10397276;28;20229;-72
2021/01/22 09:10:32;;;;;;;2.50;2.23;;;10.70;37.90;;;;;;10396729;28;20222;-72
2021/01/22 09:15:34;;;;;;;1.90;1.80;;;10.80;37.80;;;;;;10392212;28;20224;-72
2021/01/22 09:20:38;;;;;;;2.10;1.80;;;10.90;37.80;;;;;;10401051;28;20305;-72
2021/01/22 09:25:41;;;;;;;2.93;2.57;;;10.90;37.40;;;;;;10400582;28;20245;-72
2021/01/22 09:30:43;;;;;;;2.30;2.20;;;11.00;37.70;;;;;;10400502;28;20233;-72
2021/01/22 09:35:46;;;;;;;3.33;2.23;;;11.00;37.70;;;;;;10396445;28;20245;-73
2021/01/22 09:40:49;;;;;;;2.63;2.00;;;11.10;37.50;;;;;;10399745;28;20221;-73
2021/01/22 09:45:51;;;;;;;2.47;1.83;;;11.20;37.90;;;;;;10399717;28;20217;-72
2021/01/22 09:50:54;;;;;;;5.60;1.90;;;11.30;38.00;;;;;;10407341;28;20226;-72
2021/01/22 09:55:56;;;;;;;1.90;1.53;;;11.50;37.60;;;;;;10405050;28;20222;-73
2021/01/22 10:00:58;;;;;;;2.23;1.80;;;11.60;37.60;;;;;;10403428;28;20232;-74
2021/01/22 10:06:01;;;;;;;2.07;1.60;;;11.80;38.50;;;;;;10407138;28;20317;-73
2021/01/22 10:11:03;;;;;;;4.77;2.10;;;11.90;37.30;;;;;;10393571;28;20228;-74
2021/01/22 10:16:06;;;;;;;3.07;1.90;;;12.00;37.30;;;;;;10405352;28;20226;-73
2021/01/22 10:21:09;;;;;;;4.70;4.20;;;12.20;37.30;;;;;;10405168;28;20244;-74
2021/01/22 10:26:11;;;;;;;2.50;1.60;;;12.30;37.10;;;;;;10369342;28;20237;-74
2021/01/22 10:31:14;;;;;;;2.10;1.40;;;12.40;37.30;;;;;;10360578;28;22960;-71
2021/01/22 10:36:17;;;;;;;1.87;1.77;;;12.60;36.90;;;;;;10366551;28;20219;-74
2021/01/22 10:41:20;;;;;;;2.00;1.80;;;12.80;36.60;;;;;;10361492;28;20317;-74
2021/01/22 10:46:22;;;;;;;2.17;1.60;;;13.00;36.50;;;;;;10370377;28;20226;-74
2021/01/22 10:51:25;;;;;;;2.70;1.40;;;13.20;36.70;;;;;;10360702;28;20226;-73
2021/01/22 10:56:28;;;;;;;2.23;1.37;;;13.30;36.20;;;;;;10362637;28;20222;-73
2021/01/22 11:01:30;;;;;;;1.97;1.27;;;13.50;36.30;;;;;;10359273;28;20317;-73
2021/01/22 11:06:33;;;;;;;1.50;1.40;;;13.60;36.20;;;;;;10360215;28;20230;-74
2021/01/22 11:11:35;;;;;;;1.57;1.43;;;13.80;36.00;;;;;;10381786;28;20226;-73
2021/01/22 11:16:38;;;;;;;1.97;1.40;;;13.90;36.00;;;;;;10404902;28;20594;-73
2021/01/22 11:21:41;;;;;;;1.53;1.43;;;14.10;35.80;;;;;;10400405;28;20785;-73
2021/01/22 11:26:43;;;;;;;1.40;1.30;;;14.20;35.20;;;;;;10406177;28;20218;-73
2021/01/22 11:31:45;;;;;;;2.40;1.40;;;14.30;35.40;;;;;;10404355;28;20248;-73
2021/01/22 11:36:48;;;;;;;3.13;1.67;;;14.40;35.00;;;;;;10406115;28;20234;-72
2021/01/22 11:41:50;;;;;;;2.23;1.27;;;14.50;34.30;;;;;;10402209;28;20312;-72
2021/01/22 11:46:53;;;;;;;2.03;1.50;;;14.50;34.60;;;;;;10402434;28;20254;-70
2021/01/22 11:51:56;;;;;;;1.13;1.07;;;14.60;34.70;;;;;;10399988;28;20222;-70
2021/01/22 11:56:58;;;;;;;1.27;1.17;;;14.60;34.30;;;;;;10398142;28;20225;-71
2021/01/22 12:02:01;;;;;;;0.90;0.90;;;14.70;34.40;;;;;;10389435;28;20231;-70
2021/01/22 12:07:04;;;;;;;1.30;1.20;;;14.80;34.00;;;;;;10400408;28;20749;-70
2021/01/22 12:12:08;;;;;;;1.20;1.10;;;14.90;33.80;;;;;;10399482;28;20240;-70
2021/01/22 12:17:10;;;;;;;1.47;1.20;;;14.90;33.40;;;;;;10403613;28;20226;-70
2021/01/22 12:22:13;;;;;;;2.00;1.20;;;15.00;33.80;;;;;;10402063;28;20244;-70
2021/01/22 12:27:15;;;;;;;1.33;1.20;;;15.00;33.30;;;;;;10401652;28;20214;-70
2021/01/22 12:32:17;;;;;;;1.20;1.10;;;15.00;33.30;;;;;;10403045;28;20233;-70
2021/01/22 12:37:21;;;;;;;1.93;1.47;;;14.90;33.30;;;;;;10399973;28;20252;-70
2021/01/22 12:42:23;;;;;;;2.10;1.30;;;14.90;33.00;;;;;;10403490;28;20229;-70
2021/01/22 12:47:25;;;;;;;3.27;1.20;;;14.90;33.10;;;;;;10399140;28;20232;-70
2021/01/22 12:52:28;;;;;;;1.77;1.40;;;14.90;33.10;;;;;;10401279;28;20233;-71
2021/01/22 12:57:31;;;;;;;1.33;1.10;;;14.90;32.50;;;;;;10399440;28;20221;-71
2021/01/22 13:02:33;;;;;;;1.37;1.27;;;15.00;32.90;;;;;;10400213;28;20225;-71
2021/01/22 13:07:38;;;;;;;3.57;2.80;;;14.90;33.00;;;;;;10397575;28;20221;-71
2021/01/22 13:12:40;;;;;;;3.27;2.00;;;15.00;32.30;;;;;;10401312;28;20595;-70
2021/01/22 13:17:42;;;;;;;1.70;1.60;;;15.10;32.90;;;;;;10402722;28;20320;-71
2021/01/22 13:22:45;;;;;;;2.83;1.00;;;15.10;33.00;;;;;;10409837;28;20229;-70
2021/01/22 13:27:47;;;;;;;1.10;1.10;;;15.20;32.30;;;;;;10407661;28;20749;-70
2021/01/22 13:32:50;;;;;;;1.10;1.00;;;15.20;32.40;;;;;;10409835;28;20222;-70
2021/01/22 13:37:56;;;;;;;1.30;1.03;;;15.20;32.30;;;;;;10405028;28;20230;-70
2021/01/22 13:42:58;;;;;;;1.00;1.00;;;15.30;32.40;;;;;;10404934;28;20236;-70
2021/01/22 13:48:00;;;;;;;1.30;1.10;;;15.30;32.40;;;;;;10408406;28;20236;-70
2021/01/22 13:53:04;;;;;;;0.83;0.83;;;15.30;32.40;;;;;;10407154;28;20232;-72
2021/01/22 13:58:07;;;;;;;1.70;1.60;;;15.30;32.40;;;;;;10408707;28;20240;-72
2021/01/22 14:03:09;;;;;;;4.00;1.20;;;15.30;32.40;;;;;;10403258;28;20229;-72
2021/01/22 14:08:12;;;;;;;1.53;1.33;;;15.20;32.90;;;;;;10401176;28;20225;-72
2021/01/22 14:13:14;;;;;;;1.50;1.40;;;15.20;32.30;;;;;;10404417;28;20717;-72
2021/01/22 14:18:16;;;;;;;1.53;1.37;;;15.30;32.40;;;;;;10403055;28;20318;-72
2021/01/22 14:23:20;;;;;;;1.83;1.37;;;15.20;32.30;;;;;;10406878;28;20691;-72
2021/01/22 14:28:22;;;;;;;1.30;1.20;;;15.20;32.30;;;;;;10405785;28;20222;-72
2021/01/22 14:33:24;;;;;;;1.43;1.33;;;15.20;32.30;;;;;;10405864;28;20602;-72
2021/01/22 14:38:27;;;;;;;1.30;1.20;;;15.10;32.20;;;;;;10402736;28;20262;-72
2021/01/22 14:43:30;;;;;;;2.23;1.40;;;15.10;32.20;;;;;;10406116;28;20229;-72
2021/01/22 14:48:32;;;;;;;1.40;1.30;;;15.00;32.10;;;;;;10406806;28;20225;-72
2021/01/22 14:53:35;;;;;;;2.50;2.30;;;15.00;32.10;;;;;;10401174;28;20350;-72
2021/01/22 14:58:37;;;;;;;2.33;2.13;;;14.90;31.50;;;;;;10406396;28;20233;-72
2021/01/22 15:03:39;;;;;;;1.90;1.80;;;14.80;31.90;;;;;;10405466;28;20783;-72
2021/01/22 15:08:43;;;;;;;3.10;2.90;;;14.70;31.80;;;;;;10404693;28;20245;-72
2021/01/22 15:13:45;;;;;;;4.50;4.10;;;14.60;31.70;;;;;;10405235;28;20229;-72
2021/01/22 15:18:47;;;;;;;6.57;5.93;;;14.50;31.70;;;;;;10401812;28;20226;-72
2021/01/22 15:23:51;;;;;;;7.63;6.00;;;14.40;31.60;;;;;;10406241;28;20226;-72
2021/01/22 15:28:54;;;;;;;3.87;3.30;;;14.30;31.50;;;;;;10393308;28;20582;-73
2021/01/22 15:33:56;;;;;;;3.00;2.70;;;14.20;31.40;;;;;;10400687;28;20237;-73
2021/01/22 15:39:13;;;;;;;3.67;2.60;;;14.10;31.70;;;;;;10395117;28;20236;-72
2021/01/22 15:44:15;;;;;;;3.17;2.53;;;14.00;31.20;;;;;;10408694;28;20229;-72
2021/01/22 15:49:18;;;;;;;4.33;2.87;;;13.90;31.10;;;;;;10401233;28;20268;-72
2021/01/22 15:54:21;;;;;;;2.63;2.40;;;13.80;31.10;;;;;;10409326;28;20230;-72
2021/01/22 15:59:24;;;;;;;3.50;2.97;;;13.60;30.90;;;;;;10395389;28;20225;-70
2021/01/22 16:04:26;;;;;;;4.37;3.97;;;13.50;31.30;;;;;;10407787;28;20305;-69
2021/01/22 16:09:29;;;;;;;3.40;3.10;;;13.40;31.50;;;;;;10406814;28;20225;-70
2021/01/22 16:14:31;;;;;;;2.53;2.10;;;13.40;31.50;;;;;;10397849;28;20805;-69
2021/01/22 16:19:33;;;;;;;3.30;2.80;;;13.30;31.30;;;;;;10408811;28;20239;-72
2021/01/22 16:24:37;;;;;;;3.40;3.10;;;13.20;31.30;;;;;;10407395;28;20225;-72
2021/01/22 16:29:39;;;;;;;5.73;4.87;;;13.10;31.30;;;;;;10402731;28;20224;-72
2021/01/22 16:34:41;;;;;;;6.80;5.67;;;13.00;31.70;;;;;;10405432;28;20674;-72
2021/01/22 16:39:53;;;;;;;6.20;5.60;;;12.90;31.60;;;;;;10401549;28;20324;-72
2021/01/22 16:44:56;;;;;;;4.30;2.90;;;12.80;31.10;;;;;;10403494;28;20221;-72
2021/01/22 16:49:58;;;;;;;3.57;2.83;;;12.60;31.50;;;;;;10395582;28;20256;-72
2021/01/22 16:55:01;;;;;;;3.77;3.00;;;12.50;31.50;;;;;;10401475;28;20231;-72
2021/01/22 17:00:07;;;;;;;10.73;9.73;;;12.40;31.50;;;;;;10391635;28;20226;-71
2021/01/22 17:05:11;;;;;;;5.57;5.07;;;12.30;31.50;;;;;;10405591;28;20787;-72
2021/01/22 17:10:18;;;;;;;5.47;4.50;;;12.10;31.60;;;;;;10404854;28;20283;-71
2021/01/22 17:15:20;;;;;;;3.23;2.93;;;12.00;31.80;;;;;;10402605;28;20240;-72
2021/01/22 17:20:23;;;;;;;5.23;3.23;;;11.90;31.90;;;;;;10395346;28;20739;-71
2021/01/22 17:25:26;;;;;;;4.90;4.50;;;11.80;31.90;;;;;;10394658;28;20225;-72
2021/01/22 17:30:28;;;;;;;5.50;4.93;;;11.70;32.00;;;;;;10404686;28;20226;-73
2021/01/22 17:35:31;;;;;;;5.13;4.60;;;11.60;31.90;;;;;;10397977;28;20232;-72
2021/01/22 17:40:34;;;;;;;7.50;6.37;;;11.60;32.00;;;;;;10403176;28;20324;-72
2021/01/22 17:45:36;;;;;;;8.23;7.43;;;11.40;31.80;;;;;;10394581;28;20229;-72
2021/01/22 17:50:39;;;;;;;8.83;7.50;;;11.30;31.90;;;;;;10403323;28;20222;-72
2021/01/22 17:55:42;;;;;;;8.33;7.53;;;11.20;32.00;;;;;;10401803;28;20226;-72
2021/01/22 18:00:44;;;;;;;8.20;6.97;;;11.10;32.10;;;;;;10399576;28;20263;-72
2021/01/22 18:05:47;;;;;;;8.43;7.53;;;10.90;32.00;;;;;;10408305;28;20221;-72
2021/01/22 18:10:50;;;;;;;8.40;7.57;;;10.90;32.20;;;;;;10407890;28;20643;-72
2021/01/22 18:15:53;;;;;;;8.77;7.87;;;10.80;32.10;;;;;;10409689;28;20225;-72
2021/01/22 18:20:55;;;;;;;9.43;8.50;;;10.70;32.20;;;;;;10404451;28;20248;-72
2021/01/22 18:25:58;;;;;;;9.20;8.07;;;10.60;32.20;;;;;;10404817;28;20226;-72
2021/01/22 18:31:00;;;;;;;9.03;8.13;;;10.50;32.20;;;;;;10405667;28;20234;-72
2021/01/22 18:36:03;;;;;;;8.93;8.03;;;10.40;32.20;;;;;;10406125;28;20245;-71
2021/01/22 18:41:06;;;;;;;8.70;7.83;;;10.30;32.10;;;;;;10405946;28;20257;-71
2021/01/22 18:46:08;;;;;;;7.83;7.03;;;10.20;32.10;;;;;;10407869;28;20240;-72
2021/01/22 18:51:11;;;;;;;8.27;7.47;;;10.20;32.30;;;;;;10395498;28;20238;-71
2021/01/22 18:56:15;;;;;;;9.27;8.37;;;10.10;32.30;;;;;;10401161;28;20222;-71
2021/01/22 19:01:18;;;;;;;9.23;8.07;;;10.00;32.40;;;;;;10398047;28;20598;-72
2021/01/22 19:06:20;;;;;;;8.47;7.63;;;9.90;33.40;;;;;;10403438;28;20236;-72
2021/01/22 19:11:23;;;;;;;9.23;8.17;;;9.80;33.20;;;;;;10404136;28;20231;-72
2021/01/22 19:16:25;;;;;;;9.40;8.50;;;9.70;33.30;;;;;;10405736;28;20232;-72
2021/01/22 19:21:28;;;;;;;9.37;8.47;;;9.60;33.30;;;;;;10396313;28;20234;-72
2021/01/22 19:26:31;;;;;;;9.60;8.03;;;9.50;33.40;;;;;;10396378;28;20226;-72
2021/01/22 19:31:33;;;;;;;9.57;8.67;;;9.40;33.60;;;;;;10399238;28;20332;-72
2021/01/22 19:36:36;;;;;;;9.97;8.93;;;9.40;33.60;;;;;;10398275;28;20221;-72
2021/01/22 19:41:39;;;;;;;9.43;8.60;;;9.30;33.80;;;;;;10406475;28;20222;-72
2021/01/22 19:46:41;;;;;;;9.77;8.80;;;9.30;34.00;;;;;;10398324;28;20598;-72
2021/01/22 19:51:46;;;;;;;9.07;8.17;;;9.20;33.90;;;;;;10403878;28;20880;-72
2021/01/22 19:56:49;;;;;;;9.10;8.17;;;9.20;34.10;;;;;;10399976;28;20233;-72
2021/01/22 20:01:52;;;;;;;9.37;8.47;;;9.20;34.20;;;;;;10401785;28;20225;-72
2021/01/22 20:06:54;;;;;;;10.23;8.40;;;9.10;34.00;;;;;;10396690;28;20229;-72
2021/01/22 20:11:57;;;;;;;10.33;8.43;;;9.10;34.10;;;;;;10396291;28;20252;-72
2021/01/22 20:16:59;;;;;;;8.93;8.03;;;9.00;34.00;;;;;;10385905;28;20214;-72
2021/01/22 20:22:02;;;;;;;9.63;8.63;;;9.00;34.10;;;;;;10359511;28;20234;-72
2021/01/22 20:27:06;;;;;;;9.40;8.50;;;9.00;34.30;;;;;;10362294;28;20886;-72
2021/01/22 20:32:09;;;;;;;9.60;8.70;;;8.90;34.50;;;;;;10362196;28;20230;-72
2021/01/22 20:37:12;;;;;;;10.13;9.13;;;8.90;34.40;;;;;;10367828;28;20320;-71
2021/01/22 20:42:15;;;;;;;11.17;9.97;;;8.90;34.40;;;;;;10363360;28;20254;-72
2021/01/22 20:47:18;;;;;;;10.07;9.07;;;8.80;34.40;;;;;;10354749;28;20317;-73
2021/01/22 20:52:20;;;;;;;10.17;8.83;;;8.80;34.40;;;;;;10391899;28;20241;-73
2021/01/22 20:57:24;;;;;;;12.40;10.50;;;8.70;34.50;;;;;;10393585;28;20593;-73
2021/01/22 21:02:26;;;;;;;10.93;9.83;;;8.70;34.60;;;;;;10399365;28;20304;-73
2021/01/22 21:07:28;;;;;;;9.30;8.40;;;8.70;34.70;;;;;;10358679;28;20251;-73
2021/01/22 21:12:31;;;;;;;10.90;9.80;;;8.60;34.50;;;;;;10351365;28;21330;-73
2021/01/22 21:17:33;;;;;;;10.47;9.47;;;8.60;34.80;;;;;;10363601;28;20229;-73
2021/01/22 21:22:36;;;;;;;9.53;8.63;;;8.50;34.80;;;;;;10397290;28;20306;-73
2021/01/22 21:27:39;;;;;;;9.93;8.87;;;8.50;34.90;;;;;;10399174;28;20433;-73
2021/01/22 21:32:41;;;;;;;9.87;8.87;;;8.50;35.10;;;;;;10398623;28;20729;-73
2021/01/22 21:37:44;;;;;;;9.00;8.10;;;8.50;35.10;;;;;;10384819;28;20218;-73
2021/01/22 21:42:47;;;;;;;8.97;8.07;;;8.50;35.10;;;;;;10406570;28;20231;-73
2021/01/22 21:47:49;;;;;;;8.97;8.07;;;8.50;35.10;;;;;;10399746;28;20232;-73
2021/01/22 21:52:52;;;;;;;9.10;8.17;;;8.50;35.10;;;;;;10399413;28;20609;-73
2021/01/22 21:57:55;;;;;;;8.70;7.87;;;8.50;35.20;;;;;;10393993;28;20743;-73
2021/01/22 22:02:57;;;;;;;8.67;7.33;;;8.50;35.30;;;;;;10401273;28;20236;-73
2021/01/22 22:08:00;;;;;;;8.10;6.97;;;8.50;35.30;;;;;;10401982;28;20233;-73
2021/01/22 22:13:03;;;;;;;7.00;6.30;;;8.40;35.30;;;;;;10372588;28;20317;-73
2021/01/22 22:18:06;;;;;;;7.27;6.57;;;8.40;35.40;;;;;;10397370;28;20229;-73
2021/01/22 22:23:08;;;;;;;6.83;6.23;;;8.40;35.40;;;;;;10359527;28;20234;-73
2021/01/22 22:28:11;;;;;;;7.70;6.90;;;8.40;35.50;;;;;;10358199;28;20698;-73
2021/01/22 22:33:14;;;;;;;6.83;6.13;;;8.40;35.50;;;;;;10397851;28;20605;-73
2021/01/22 22:38:17;;;;;;;7.07;6.37;;;8.40;35.50;;;;;;10395927;28;20305;-73
2021/01/22 22:43:20;;;;;;;7.67;6.93;;;8.40;35.60;;;;;;10400865;28;20225;-73
2021/01/22 22:48:22;;;;;;;7.47;6.80;;;8.40;35.60;;;;;;10392330;28;20222;-73
2021/01/22 22:53:24;;;;;;;7.40;6.60;;;8.40;35.70;;;;;;10393884;28;20239;-73
2021/01/22 22:58:27;;;;;;;6.63;6.03;;;8.40;35.80;;;;;;10391031;28;20226;-73
2021/01/22 23:03:30;;;;;;;7.73;7.00;;;8.40;36.00;;;;;;10397157;28;20236;-73
2021/01/22 23:08:32;;;;;;;7.77;7.07;;;8.30;36.00;;;;;;10393626;28;20706;-73
2021/01/22 23:13:36;;;;;;;8.67;7.53;;;8.30;36.10;;;;;;10389308;28;20232;-73
2021/01/22 23:18:38;;;;;;;7.77;7.07;;;8.20;36.30;;;;;;10396843;28;20709;-73
2021/01/22 23:23:40;;;;;;;7.27;6.57;;;8.10;36.40;;;;;;10392802;28;20245;-73
2021/01/22 23:28:43;;;;;;;8.20;7.00;;;8.10;36.70;;;;;;10398639;28;20222;-73
2021/01/22 23:33:46;;;;;;;6.50;5.90;;;8.10;37.00;;;;;;10401942;28;20234;-73
2021/01/22 23:38:48;;;;;;;6.90;5.87;;;8.10;36.90;;;;;;10395223;28;20236;-73
2021/01/22 23:43:51;;;;;;;6.87;6.27;;;8.10;37.10;;;;;;10396725;28;20226;-73
2021/01/22 23:48:53;;;;;;;7.30;6.60;;;8.10;37.30;;;;;;10395636;28;20230;-73
2021/01/22 23:53:56;;;;;;;7.80;7.10;;;8.10;37.10;;;;;;10402516;28;20229;-73
2021/01/22 23:58:59;;;;;;;7.90;7.10;;;8.10;37.20;;;;;;10394438;28;20360;-73
